sensor_id;sensor_type;location;lat;lon;timestamp;P1;durP1;ratioP1;P2;durP2;ratioP2
37517;SDS011;23366;52.498;13.446;2022-09-09T00:05:20;13.20;;;9.57;;
37517;SDS011;23366;52.498;13.446;2022-09-09T00:15:13;19.58;;;11.10;;
37517;SDS011;23366;52.498;13.446;2022-09-09T00:18:22;15.23;;;10.85;;
37517;SDS011;23366;52.498;13.446;2022-09-09T00:21:13;17.88;;;11.68;;
37517;SDS011;23366;52.498;13.446;2022-09-09T00:23:44;14.80;;;10.02;;
37517;SDS011;23366;52.498;13.446;2022-09-09T00:31:37;13.70;;;9.77;;
37517;SDS011;23366;52.498;13.446;2022-09-09T00:34:12;15.68;;;10.55;;
37517;SDS011;23366;52.498;13.446;2022-09-09T00:36:47;15.23;;;10.27;;
37517;SDS011;23366;52.498;13.446;2022-09-09T00:39:27;18.15;;;11.57;;
37517;SDS011;23366;52.498;13.446;2022-09-09T00:42:16;19.25;;;12.05;;
37517;SDS011;23366;52.498;13.446;2022-09-09T00:45:11;16.13;;;10.60;;
37517;SDS011;23366;52.498;13.446;2022-09-09T00:47:57;17.80;;;10.98;;
37517;SDS011;23366;52.498;13.446;2022-09-09T00:56:30;18.70;;;11.50;;
37517;SDS011;23366;52.498;13.446;2022-09-09T00:59:18;22.45;;;11.80;;
37517;SDS011;23366;52.498;13.446;2022-09-09T01:02:02;19.48;;;12.73;;
37517;SDS011;23366;52.498;13.446;2022-09-09T01:04:41;20.25;;;11.95;;
37517;SDS011;23366;52.498;13.446;2022-09-09T01:07:18;16.75;;;11.27;;
37517;SDS011;23366;52.498;13.446;2022-09-09T01:12:24;22.15;;;10.82;;
37517;SDS011;23366;52.498;13.446;2022-09-09T01:17:44;19.67;;;11.52;;
37517;SDS011;23366;52.498;13.446;2022-09-09T01:20:24;20.20;;;12.40;;
37517;SDS011;23366;52.498;13.446;2022-09-09T01:28:34;18.45;;;10.48;;
37517;SDS011;23366;52.498;13.446;2022-09-09T01:31:05;16.65;;;10.00;;
37517;SDS011;23366;52.498;13.446;2022-09-09T01:33:32;23.52;;;11.65;;
37517;SDS011;23366;52.498;13.446;2022-09-09T01:36:06;16.75;;;10.90;;
37517;SDS011;23366;52.498;13.446;2022-09-09T01:38:35;17.33;;;9.75;;
37517;SDS011;23366;52.498;13.446;2022-09-09T01:41:01;16.73;;;9.95;;
37517;SDS011;23366;52.498;13.446;2022-09-09T01:43:27;17.35;;;9.95;;
37517;SDS011;23366;52.498;13.446;2022-09-09T01:45:54;13.57;;;9.30;;
37517;SDS011;23366;52.498;13.446;2022-09-09T01:48:23;19.75;;;10.43;;
37517;SDS011;23366;52.498;13.446;2022-09-09T01:50:50;19.33;;;10.90;;
37517;SDS011;23366;52.498;13.446;2022-09-09T01:53:16;14.95;;;9.23;;
37517;SDS011;23366;52.498;13.446;2022-09-09T01:55:46;23.20;;;10.25;;
37517;SDS011;23366;52.498;13.446;2022-09-09T01:59:01;14.60;;;9.55;;
37517;SDS011;23366;52.498;13.446;2022-09-09T02:02:02;16.13;;;10.50;;
37517;SDS011;23366;52.498;13.446;2022-09-09T02:04:36;25.42;;;13.57;;
37517;SDS011;23366;52.498;13.446;2022-09-09T02:07:05;20.42;;;12.23;;
37517;SDS011;23366;52.498;13.446;2022-09-09T02:09:40;17.25;;;11.50;;
37517;SDS011;23366;52.498;13.446;2022-09-09T02:12:11;18.27;;;11.60;;
37517;SDS011;23366;52.498;13.446;2022-09-09T02:14:41;21.17;;;12.70;;
37517;SDS011;23366;52.498;13.446;2022-09-09T02:17:10;19.58;;;12.02;;
37517;SDS011;23366;52.498;13.446;2022-09-09T02:19:39;21.02;;;12.15;;
37517;SDS011;23366;52.498;13.446;2022-09-09T02:22:11;15.70;;;9.93;;
37517;SDS011;23366;52.498;13.446;2022-09-09T02:24:38;23.23;;;11.45;;
37517;SDS011;23366;52.498;13.446;2022-09-09T02:27:05;19.38;;;10.90;;
37517;SDS011;23366;52.498;13.446;2022-09-09T02:29:38;19.27;;;11.07;;
37517;SDS011;23366;52.498;13.446;2022-09-09T02:32:07;18.33;;;10.65;;
37517;SDS011;23366;52.498;13.446;2022-09-09T02:34:36;19.85;;;10.75;;
37517;SDS011;23366;52.498;13.446;2022-09-09T02:37:07;17.33;;;10.38;;
37517;SDS011;23366;52.498;13.446;2022-09-09T02:39:34;15.75;;;9.88;;
37517;SDS011;23366;52.498;13.446;2022-09-09T02:42:00;17.98;;;11.05;;
37517;SDS011;23366;52.498;13.446;2022-09-09T02:44:26;13.18;;;8.70;;
37517;SDS011;23366;52.498;13.446;2022-09-09T02:47:07;18.98;;;10.93;;
37517;SDS011;23366;52.498;13.446;2022-09-09T02:52:38;17.63;;;10.93;;
37517;SDS011;23366;52.498;13.446;2022-09-09T02:55:24;18.10;;;10.52;;
37517;SDS011;23366;52.498;13.446;2022-09-09T02:58:03;22.50;;;10.60;;
37517;SDS011;23366;52.498;13.446;2022-09-09T03:00:32;13.02;;;9.05;;
37517;SDS011;23366;52.498;13.446;2022-09-09T03:02:58;19.48;;;10.07;;
37517;SDS011;23366;52.498;13.446;2022-09-09T03:05:23;17.25;;;10.60;;
37517;SDS011;23366;52.498;13.446;2022-09-09T03:07:50;18.13;;;9.82;;
37517;SDS011;23366;52.498;13.446;2022-09-09T03:10:16;16.63;;;9.93;;
37517;SDS011;23366;52.498;13.446;2022-09-09T03:12:42;22.88;;;10.52;;
37517;SDS011;23366;52.498;13.446;2022-09-09T03:15:08;23.08;;;10.43;;
37517;SDS011;23366;52.498;13.446;2022-09-09T03:17:35;15.85;;;9.52;;
37517;SDS011;23366;52.498;13.446;2022-09-09T03:20:01;17.02;;;10.48;;
37517;SDS011;23366;52.498;13.446;2022-09-09T03:22:28;14.35;;;8.75;;
37517;SDS011;23366;52.498;13.446;2022-09-09T03:24:53;18.17;;;9.20;;
37517;SDS011;23366;52.498;13.446;2022-09-09T03:27:19;15.65;;;8.90;;
37517;SDS011;23366;52.498;13.446;2022-09-09T03:29:45;18.00;;;9.50;;
37517;SDS011;23366;52.498;13.446;2022-09-09T03:32:11;16.50;;;10.02;;
37517;SDS011;23366;52.498;13.446;2022-09-09T03:34:37;17.27;;;8.43;;
37517;SDS011;23366;52.498;13.446;2022-09-09T03:37:05;14.07;;;9.90;;
37517;SDS011;23366;52.498;13.446;2022-09-09T03:39:31;12.15;;;8.70;;
37517;SDS011;23366;52.498;13.446;2022-09-09T03:41:57;15.60;;;8.82;;
37517;SDS011;23366;52.498;13.446;2022-09-09T03:44:22;16.55;;;9.05;;
37517;SDS011;23366;52.498;13.446;2022-09-09T03:46:48;12.80;;;8.18;;
37517;SDS011;23366;52.498;13.446;2022-09-09T03:49:19;13.65;;;9.52;;
37517;SDS011;23366;52.498;13.446;2022-09-09T03:51:47;18.75;;;10.57;;
37517;SDS011;23366;52.498;13.446;2022-09-09T03:54:12;21.15;;;9.93;;
37517;SDS011;23366;52.498;13.446;2022-09-09T03:56:39;15.70;;;10.20;;
37517;SDS011;23366;52.498;13.446;2022-09-09T03:59:07;14.13;;;9.40;;
37517;SDS011;23366;52.498;13.446;2022-09-09T04:01:36;16.08;;;8.80;;
37517;SDS011;23366;52.498;13.446;2022-09-09T04:04:02;17.45;;;10.32;;
37517;SDS011;23366;52.498;13.446;2022-09-09T04:06:28;15.00;;;9.75;;
37517;SDS011;23366;52.498;13.446;2022-09-09T04:08:55;17.75;;;10.57;;
37517;SDS011;23366;52.498;13.446;2022-09-09T04:11:20;17.60;;;10.38;;
37517;SDS011;23366;52.498;13.446;2022-09-09T04:13:47;18.63;;;9.95;;
37517;SDS011;23366;52.498;13.446;2022-09-09T04:16:13;17.23;;;9.38;;
37517;SDS011;23366;52.498;13.446;2022-09-09T04:18:39;14.50;;;9.32;;
37517;SDS011;23366;52.498;13.446;2022-09-09T04:21:05;20.23;;;10.82;;
37517;SDS011;23366;52.498;13.446;2022-09-09T04:23:33;18.52;;;10.18;;
37517;SDS011;23366;52.498;13.446;2022-09-09T04:25:59;17.42;;;10.20;;
37517;SDS011;23366;52.498;13.446;2022-09-09T04:28:26;13.13;;;8.15;;
37517;SDS011;23366;52.498;13.446;2022-09-09T04:30:54;13.48;;;9.57;;
37517;SDS011;23366;52.498;13.446;2022-09-09T04:33:23;17.65;;;10.02;;
37517;SDS011;23366;52.498;13.446;2022-09-09T04:35:51;15.10;;;9.55;;
37517;SDS011;23366;52.498;13.446;2022-09-09T04:38:19;15.35;;;9.50;;
37517;SDS011;23366;52.498;13.446;2022-09-09T04:40:47;19.85;;;9.80;;
37517;SDS011;23366;52.498;13.446;2022-09-09T04:43:14;17.42;;;9.05;;
37517;SDS011;23366;52.498;13.446;2022-09-09T04:45:40;16.35;;;8.30;;
37517;SDS011;23366;52.498;13.446;2022-09-09T04:48:06;14.13;;;9.00;;
37517;SDS011;23366;52.498;13.446;2022-09-09T04:50:32;13.45;;;9.07;;
37517;SDS011;23366;52.498;13.446;2022-09-09T04:53:02;14.10;;;8.27;;
37517;SDS011;23366;52.498;13.446;2022-09-09T04:55:30;17.90;;;8.25;;
37517;SDS011;23366;52.498;13.446;2022-09-09T04:57:56;9.10;;;7.25;;
37517;SDS011;23366;52.498;13.446;2022-09-09T05:00:22;10.63;;;7.47;;
37517;SDS011;23366;52.498;13.446;2022-09-09T05:02:48;11.02;;;7.65;;
37517;SDS011;23366;52.498;13.446;2022-09-09T05:05:19;9.13;;;6.75;;
37517;SDS011;23366;52.498;13.446;2022-09-09T05:08:13;8.90;;;6.28;;
37517;SDS011;23366;52.498;13.446;2022-09-09T05:10:40;8.25;;;6.47;;
37517;SDS011;23366;52.498;13.446;2022-09-09T05:13:07;8.75;;;6.70;;
37517;SDS011;23366;52.498;13.446;2022-09-09T05:15:32;8.98;;;6.22;;
37517;SDS011;23366;52.498;13.446;2022-09-09T05:18:00;10.02;;;7.22;;
37517;SDS011;23366;52.498;13.446;2022-09-09T05:20:27;10.32;;;8.05;;
37517;SDS011;23366;52.498;13.446;2022-09-09T05:22:56;14.60;;;9.43;;
37517;SDS011;23366;52.498;13.446;2022-09-09T05:25:22;23.45;;;9.82;;
37517;SDS011;23366;52.498;13.446;2022-09-09T05:27:50;10.30;;;7.75;;
37517;SDS011;23366;52.498;13.446;2022-09-09T05:30:23;11.90;;;6.30;;
37517;SDS011;23366;52.498;13.446;2022-09-09T05:32:51;6.10;;;3.97;;
37517;SDS011;23366;52.498;13.446;2022-09-09T05:35:16;7.53;;;3.67;;
37517;SDS011;23366;52.498;13.446;2022-09-09T05:37:44;4.07;;;3.15;;
37517;SDS011;23366;52.498;13.446;2022-09-09T05:40:11;3.45;;;2.63;;
37517;SDS011;23366;52.498;13.446;2022-09-09T05:42:37;4.07;;;2.53;;
37517;SDS011;23366;52.498;13.446;2022-09-09T05:45:04;2.40;;;2.10;;
37517;SDS011;23366;52.498;13.446;2022-09-09T05:47:30;7.40;;;2.83;;
37517;SDS011;23366;52.498;13.446;2022-09-09T05:49:55;3.85;;;2.53;;
37517;SDS011;23366;52.498;13.446;2022-09-09T05:52:21;2.13;;;1.50;;
37517;SDS011;23366;52.498;13.446;2022-09-09T05:54:48;6.32;;;1.80;;
37517;SDS011;23366;52.498;13.446;2022-09-09T05:57:14;5.70;;;1.80;;
37517;SDS011;23366;52.498;13.446;2022-09-09T05:59:39;10.10;;;2.42;;
37517;SDS011;23366;52.498;13.446;2022-09-09T06:02:05;3.95;;;1.60;;
37517;SDS011;23366;52.498;13.446;2022-09-09T06:04:30;3.13;;;1.70;;
37517;SDS011;23366;52.498;13.446;2022-09-09T06:06:56;2.63;;;1.33;;
37517;SDS011;23366;52.498;13.446;2022-09-09T06:09:21;4.57;;;1.75;;
37517;SDS011;23366;52.498;13.446;2022-09-09T06:11:47;3.70;;;1.92;;
37517;SDS011;23366;52.498;13.446;2022-09-09T06:14:13;5.00;;;2.03;;
37517;SDS011;23366;52.498;13.446;2022-09-09T06:16:39;1.65;;;1.40;;
37517;SDS011;23366;52.498;13.446;2022-09-09T06:19:07;1.98;;;1.20;;
37517;SDS011;23366;52.498;13.446;2022-09-09T06:21:33;3.03;;;1.58;;
37517;SDS011;23366;52.498;13.446;2022-09-09T06:24:03;4.87;;;3.07;;
37517;SDS011;23366;52.498;13.446;2022-09-09T06:26:30;2.03;;;1.30;;
37517;SDS011;23366;52.498;13.446;2022-09-09T06:29:00;2.60;;;1.42;;
37517;SDS011;23366;52.498;13.446;2022-09-09T06:31:28;2.60;;;1.67;;
37517;SDS011;23366;52.498;13.446;2022-09-09T06:33:57;3.47;;;1.23;;
37517;SDS011;23366;52.498;13.446;2022-09-09T06:36:31;3.83;;;1.88;;
37517;SDS011;23366;52.498;13.446;2022-09-09T06:38:58;2.05;;;1.33;;
37517;SDS011;23366;52.498;13.446;2022-09-09T06:41:24;1.48;;;1.23;;
37517;SDS011;23366;52.498;13.446;2022-09-09T06:43:52;3.53;;;1.42;;
37517;SDS011;23366;52.498;13.446;2022-09-09T06:46:18;1.50;;;1.33;;
37517;SDS011;23366;52.498;13.446;2022-09-09T06:48:53;4.07;;;1.50;;
37517;SDS011;23366;52.498;13.446;2022-09-09T06:51:25;5.82;;;1.90;;
37517;SDS011;23366;52.498;13.446;2022-09-09T06:53:53;3.40;;;1.27;;
37517;SDS011;23366;52.498;13.446;2022-09-09T06:56:21;1.27;;;1.05;;
37517;SDS011;23366;52.498;13.446;2022-09-09T06:58:53;3.78;;;1.27;;
37517;SDS011;23366;52.498;13.446;2022-09-09T07:01:20;1.23;;;0.82;;
37517;SDS011;23366;52.498;13.446;2022-09-09T07:03:48;4.47;;;1.40;;
37517;SDS011;23366;52.498;13.446;2022-09-09T07:06:17;10.30;;;1.70;;
37517;SDS011;23366;52.498;13.446;2022-09-09T07:08:48;1.65;;;0.80;;
37517;SDS011;23366;52.498;13.446;2022-09-09T07:11:28;2.03;;;0.77;;
37517;SDS011;23366;52.498;13.446;2022-09-09T07:13:56;2.30;;;1.10;;
37517;SDS011;23366;52.498;13.446;2022-09-09T07:16:22;1.50;;;0.73;;
37517;SDS011;23366;52.498;13.446;2022-09-09T07:18:49;3.65;;;1.05;;
37517;SDS011;23366;52.498;13.446;2022-09-09T07:21:15;2.10;;;0.80;;
37517;SDS011;23366;52.498;13.446;2022-09-09T07:23:41;6.30;;;1.25;;
37517;SDS011;23366;52.498;13.446;2022-09-09T07:26:08;2.75;;;1.25;;
37517;SDS011;23366;52.498;13.446;2022-09-09T07:28:46;3.38;;;1.13;;
37517;SDS011;23366;52.498;13.446;2022-09-09T07:31:13;2.17;;;1.20;;
37517;SDS011;23366;52.498;13.446;2022-09-09T07:33:41;7.05;;;1.13;;
37517;SDS011;23366;52.498;13.446;2022-09-09T07:36:09;1.83;;;0.98;;
37517;SDS011;23366;52.498;13.446;2022-09-09T07:38:41;1.30;;;0.82;;
37517;SDS011;23366;52.498;13.446;2022-09-09T07:41:12;2.65;;;0.88;;
37517;SDS011;23366;52.498;13.446;2022-09-09T07:43:41;1.67;;;0.85;;
37517;SDS011;23366;52.498;13.446;2022-09-09T07:46:08;7.28;;;0.98;;
37517;SDS011;23366;52.498;13.446;2022-09-09T07:48:34;5.03;;;0.90;;
37517;SDS011;23366;52.498;13.446;2022-09-09T07:51:04;4.47;;;1.05;;
37517;SDS011;23366;52.498;13.446;2022-09-09T07:53:31;3.15;;;1.00;;
37517;SDS011;23366;52.498;13.446;2022-09-09T07:56:07;2.67;;;1.58;;
37517;SDS011;23366;52.498;13.446;2022-09-09T07:58:38;1.52;;;0.70;;
37517;SDS011;23366;52.498;13.446;2022-09-09T08:01:09;2.90;;;0.95;;
37517;SDS011;23366;52.498;13.446;2022-09-09T08:03:37;4.78;;;1.38;;
37517;SDS011;23366;52.498;13.446;2022-09-09T08:06:04;2.55;;;0.93;;
37517;SDS011;23366;52.498;13.446;2022-09-09T08:08:32;2.70;;;0.88;;
37517;SDS011;23366;52.498;13.446;2022-09-09T08:11:06;2.75;;;0.82;;
37517;SDS011;23366;52.498;13.446;2022-09-09T08:13:37;4.07;;;0.70;;
37517;SDS011;23366;52.498;13.446;2022-09-09T08:16:06;3.30;;;0.98;;
37517;SDS011;23366;52.498;13.446;2022-09-09T08:18:33;2.88;;;1.13;;
37517;SDS011;23366;52.498;13.446;2022-09-09T08:21:06;2.05;;;0.75;;
37517;SDS011;23366;52.498;13.446;2022-09-09T08:23:37;2.72;;;0.80;;
37517;SDS011;23366;52.498;13.446;2022-09-09T08:28:46;1.65;;;1.27;;
37517;SDS011;23366;52.498;13.446;2022-09-09T08:33:38;4.65;;;1.40;;
37517;SDS011;23366;52.498;13.446;2022-09-09T08:36:05;3.17;;;0.95;;
37517;SDS011;23366;52.498;13.446;2022-09-09T08:38:32;4.60;;;1.23;;
37517;SDS011;23366;52.498;13.446;2022-09-09T08:43:47;1.00;;;0.50;;
37517;SDS011;23366;52.498;13.446;2022-09-09T08:46:31;2.40;;;1.00;;
37517;SDS011;23366;52.498;13.446;2022-09-09T08:54:50;5.32;;;1.05;;
37517;SDS011;23366;52.498;13.446;2022-09-09T08:57:20;3.10;;;0.80;;
37517;SDS011;23366;52.498;13.446;2022-09-09T08:59:53;2.10;;;0.80;;
37517;SDS011;23366;52.498;13.446;2022-09-09T09:02:24;3.47;;;1.10;;
37517;SDS011;23366;52.498;13.446;2022-09-09T09:05:04;4.05;;;1.15;;
37517;SDS011;23366;52.498;13.446;2022-09-09T09:08:00;1.95;;;0.80;;
37517;SDS011;23366;52.498;13.446;2022-09-09T09:10:53;4.68;;;1.10;;
37517;SDS011;23366;52.498;13.446;2022-09-09T09:16:02;2.08;;;0.70;;
37517;SDS011;23366;52.498;13.446;2022-09-09T09:18:38;3.97;;;1.13;;
37517;SDS011;23366;52.498;13.446;2022-09-09T09:23:42;6.32;;;1.25;;
37517;SDS011;23366;52.498;13.446;2022-09-09T09:26:23;1.67;;;0.80;;
37517;SDS011;23366;52.498;13.446;2022-09-09T09:28:51;3.90;;;1.30;;
37517;SDS011;23366;52.498;13.446;2022-09-09T09:31:21;1.13;;;0.80;;
37517;SDS011;23366;52.498;13.446;2022-09-09T09:36:15;2.50;;;0.70;;
37517;SDS011;23366;52.498;13.446;2022-09-09T09:38:55;4.13;;;1.48;;
37517;SDS011;23366;52.498;13.446;2022-09-09T09:41:29;6.53;;;1.10;;
37517;SDS011;23366;52.498;13.446;2022-09-09T09:43:56;3.78;;;1.00;;
37517;SDS011;23366;52.498;13.446;2022-09-09T09:46:22;5.80;;;1.33;;
37517;SDS011;23366;52.498;13.446;2022-09-09T09:49:08;4.38;;;1.23;;
37517;SDS011;23366;52.498;13.446;2022-09-09T09:51:34;4.30;;;0.98;;
37517;SDS011;23366;52.498;13.446;2022-09-09T09:54:43;3.50;;;0.98;;
37517;SDS011;23366;52.498;13.446;2022-09-09T09:56:53;4.03;;;1.33;;
37517;SDS011;23366;52.498;13.446;2022-09-09T09:59:20;0.70;;;0.50;;
37517;SDS011;23366;52.498;13.446;2022-09-09T10:01:52;1.30;;;0.80;;
37517;SDS011;23366;52.498;13.446;2022-09-09T10:04:19;2.13;;;0.65;;
37517;SDS011;23366;52.498;13.446;2022-09-09T10:06:48;3.65;;;0.77;;
37517;SDS011;23366;52.498;13.446;2022-09-09T10:09:20;1.77;;;0.80;;
37517;SDS011;23366;52.498;13.446;2022-09-09T10:20:35;2.42;;;0.60;;
37517;SDS011;23366;52.498;13.446;2022-09-09T10:43:01;1.48;;;0.95;;
37517;SDS011;23366;52.498;13.446;2022-09-09T10:45:56;2.95;;;0.82;;
37517;SDS011;23366;52.498;13.446;2022-09-09T10:48:40;3.47;;;0.90;;
37517;SDS011;23366;52.498;13.446;2022-09-09T10:51:36;2.40;;;1.05;;
37517;SDS011;23366;52.498;13.446;2022-09-09T10:56:55;2.22;;;1.20;;
37517;SDS011;23366;52.498;13.446;2022-09-09T10:59:29;1.60;;;0.88;;
37517;SDS011;23366;52.498;13.446;2022-09-09T11:02:02;2.17;;;1.10;;
37517;SDS011;23366;52.498;13.446;2022-09-09T11:04:52;5.82;;;0.93;;
37517;SDS011;23366;52.498;13.446;2022-09-09T11:07:24;2.80;;;0.80;;
37517;SDS011;23366;52.498;13.446;2022-09-09T11:10:06;2.85;;;0.70;;
37517;SDS011;23366;52.498;13.446;2022-09-09T11:12:41;7.43;;;0.77;;
37517;SDS011;23366;52.498;13.446;2022-09-09T11:15:17;3.33;;;1.88;;
37517;SDS011;23366;52.498;13.446;2022-09-09T11:17:53;2.47;;;1.77;;
37517;SDS011;23366;52.498;13.446;2022-09-09T11:20:23;1.92;;;0.77;;
37517;SDS011;23366;52.498;13.446;2022-09-09T11:25:32;1.65;;;0.68;;
37517;SDS011;23366;52.498;13.446;2022-09-09T11:28:24;13.05;;;1.58;;
37517;SDS011;23366;52.498;13.446;2022-09-09T11:33:55;1.63;;;0.70;;
37517;SDS011;23366;52.498;13.446;2022-09-09T11:36:50;2.80;;;1.08;;
37517;SDS011;23366;52.498;13.446;2022-09-09T11:39:43;2.50;;;1.25;;
37517;SDS011;23366;52.498;13.446;2022-09-09T11:42:23;3.65;;;0.90;;
37517;SDS011;23366;52.498;13.446;2022-09-09T11:44:49;1.20;;;0.70;;
37517;SDS011;23366;52.498;13.446;2022-09-09T11:47:26;4.22;;;0.80;;
37517;SDS011;23366;52.498;13.446;2022-09-09T11:52:47;6.30;;;1.60;;
37517;SDS011;23366;52.498;13.446;2022-09-09T11:58:37;0.80;;;0.50;;
37517;SDS011;23366;52.498;13.446;2022-09-09T12:00:47;4.28;;;0.98;;
37517;SDS011;23366;52.498;13.446;2022-09-09T12:03:34;5.45;;;0.63;;
37517;SDS011;23366;52.498;13.446;2022-09-09T12:06:26;0.73;;;0.50;;
37517;SDS011;23366;52.498;13.446;2022-09-09T12:09:07;5.30;;;0.98;;
37517;SDS011;23366;52.498;13.446;2022-09-09T12:11:40;2.67;;;0.90;;
37517;SDS011;23366;52.498;13.446;2022-09-09T12:14:18;1.92;;;0.73;;
37517;SDS011;23366;52.498;13.446;2022-09-09T12:16:46;3.95;;;0.60;;
37517;SDS011;23366;52.498;13.446;2022-09-09T12:19:14;3.70;;;1.20;;
37517;SDS011;23366;52.498;13.446;2022-09-09T12:24:32;2.35;;;0.60;;
37517;SDS011;23366;52.498;13.446;2022-09-09T12:27:11;1.98;;;0.68;;
37517;SDS011;23366;52.498;13.446;2022-09-09T12:29:55;2.58;;;0.90;;
37517;SDS011;23366;52.498;13.446;2022-09-09T12:32:27;3.50;;;0.75;;
37517;SDS011;23366;52.498;13.446;2022-09-09T12:34:55;1.95;;;0.63;;
37517;SDS011;23366;52.498;13.446;2022-09-09T12:40:01;2.78;;;0.90;;
37517;SDS011;23366;52.498;13.446;2022-09-09T12:42:29;1.63;;;0.60;;
37517;SDS011;23366;52.498;13.446;2022-09-09T12:44:58;2.25;;;0.60;;
37517;SDS011;23366;52.498;13.446;2022-09-09T12:50:21;2.38;;;0.85;;
37517;SDS011;23366;52.498;13.446;2022-09-09T12:52:50;2.45;;;0.50;;
37517;SDS011;23366;52.498;13.446;2022-09-09T12:55:23;4.32;;;0.60;;
37517;SDS011;23366;52.498;13.446;2022-09-09T12:57:54;3.20;;;0.40;;
37517;SDS011;23366;52.498;13.446;2022-09-09T13:00:22;1.95;;;0.60;;
37517;SDS011;23366;52.498;13.446;2022-09-09T13:05:35;2.58;;;0.60;;
37517;SDS011;23366;52.498;13.446;2022-09-09T13:08:04;3.85;;;0.82;;
37517;SDS011;23366;52.498;13.446;2022-09-09T13:10:33;2.47;;;0.73;;
37517;SDS011;23366;52.498;13.446;2022-09-09T13:13:03;1.73;;;0.60;;
37517;SDS011;23366;52.498;13.446;2022-09-09T13:15:38;1.13;;;0.45;;
37517;SDS011;23366;52.498;13.446;2022-09-09T13:18:54;1.17;;;0.70;;
37517;SDS011;23366;52.498;13.446;2022-09-09T13:21:42;1.52;;;0.50;;
37517;SDS011;23366;52.498;13.446;2022-09-09T13:24:28;2.13;;;0.70;;
37517;SDS011;23366;52.498;13.446;2022-09-09T13:26:57;3.65;;;1.15;;
37517;SDS011;23366;52.498;13.446;2022-09-09T13:29:27;1.42;;;1.02;;
37517;SDS011;23366;52.498;13.446;2022-09-09T13:31:53;5.63;;;1.30;;
37517;SDS011;23366;52.498;13.446;2022-09-09T13:34:29;1.52;;;0.50;;
37517;SDS011;23366;52.498;13.446;2022-09-09T13:37:05;1.20;;;0.43;;
37517;SDS011;23366;52.498;13.446;2022-09-09T13:39:50;3.20;;;0.93;;
37517;SDS011;23366;52.498;13.446;2022-09-09T13:42:25;3.15;;;0.38;;
37517;SDS011;23366;52.498;13.446;2022-09-09T13:44:52;2.03;;;0.50;;
37517;SDS011;23366;52.498;13.446;2022-09-09T13:47:19;2.25;;;0.70;;
37517;SDS011;23366;52.498;13.446;2022-09-09T13:49:46;3.65;;;0.80;;
37517;SDS011;23366;52.498;13.446;2022-09-09T13:52:13;1.20;;;0.40;;
37517;SDS011;23366;52.498;13.446;2022-09-09T13:54:40;3.13;;;0.63;;
37517;SDS011;23366;52.498;13.446;2022-09-09T13:57:16;2.30;;;0.60;;
37517;SDS011;23366;52.498;13.446;2022-09-09T14:02:13;1.52;;;0.95;;
37517;SDS011;23366;52.498;13.446;2022-09-09T14:04:43;0.52;;;0.30;;
37517;SDS011;23366;52.498;13.446;2022-09-09T14:07:11;1.45;;;0.50;;
37517;SDS011;23366;52.498;13.446;2022-09-09T14:09:39;1.70;;;0.60;;
37517;SDS011;23366;52.498;13.446;2022-09-09T14:12:50;1.48;;;0.47;;
37517;SDS011;23366;52.498;13.446;2022-09-09T14:15:24;3.50;;;1.52;;
37517;SDS011;23366;52.498;13.446;2022-09-09T14:17:57;4.65;;;0.90;;
37517;SDS011;23366;52.498;13.446;2022-09-09T14:20:31;4.88;;;0.55;;
37517;SDS011;23366;52.498;13.446;2022-09-09T14:23:08;3.88;;;0.90;;
37517;SDS011;23366;52.498;13.446;2022-09-09T14:25:41;2.40;;;0.82;;
37517;SDS011;23366;52.498;13.446;2022-09-09T14:28:09;4.85;;;0.98;;
37517;SDS011;23366;52.498;13.446;2022-09-09T14:30:36;0.73;;;0.70;;
37517;SDS011;23366;52.498;13.446;2022-09-09T14:33:04;8.60;;;0.95;;
37517;SDS011;23366;52.498;13.446;2022-09-09T14:35:30;2.42;;;0.70;;
37517;SDS011;23366;52.498;13.446;2022-09-09T14:37:55;3.35;;;0.80;;
37517;SDS011;23366;52.498;13.446;2022-09-09T14:40:21;1.50;;;0.40;;
37517;SDS011;23366;52.498;13.446;2022-09-09T14:42:47;4.15;;;1.65;;
37517;SDS011;23366;52.498;13.446;2022-09-09T14:45:12;3.55;;;0.98;;
37517;SDS011;23366;52.498;13.446;2022-09-09T14:47:38;4.07;;;0.88;;
37517;SDS011;23366;52.498;13.446;2022-09-09T14:50:04;1.67;;;1.02;;
37517;SDS011;23366;52.498;13.446;2022-09-09T14:52:31;2.03;;;0.95;;
37517;SDS011;23366;52.498;13.446;2022-09-09T14:54:56;13.50;;;2.50;;
37517;SDS011;23366;52.498;13.446;2022-09-09T14:57:22;1.63;;;0.88;;
37517;SDS011;23366;52.498;13.446;2022-09-09T14:59:47;4.68;;;0.70;;
37517;SDS011;23366;52.498;13.446;2022-09-09T15:02:15;2.35;;;0.88;;
37517;SDS011;23366;52.498;13.446;2022-09-09T15:04:41;3.63;;;0.95;;
37517;SDS011;23366;52.498;13.446;2022-09-09T15:07:07;2.67;;;0.55;;
37517;SDS011;23366;52.498;13.446;2022-09-09T15:09:32;2.25;;;0.70;;
37517;SDS011;23366;52.498;13.446;2022-09-09T15:11:58;2.25;;;0.82;;
37517;SDS011;23366;52.498;13.446;2022-09-09T15:14:24;3.70;;;0.88;;
37517;SDS011;23366;52.498;13.446;2022-09-09T15:16:51;4.28;;;0.95;;
37517;SDS011;23366;52.498;13.446;2022-09-09T15:19:16;2.60;;;0.70;;
37517;SDS011;23366;52.498;13.446;2022-09-09T15:21:42;4.15;;;0.85;;
37517;SDS011;23366;52.498;13.446;2022-09-09T15:24:07;0.35;;;0.35;;
37517;SDS011;23366;52.498;13.446;2022-09-09T15:26:33;3.53;;;0.88;;
37517;SDS011;23366;52.498;13.446;2022-09-09T15:29:00;2.05;;;0.40;;
37517;SDS011;23366;52.498;13.446;2022-09-09T15:31:30;1.42;;;0.70;;
37517;SDS011;23366;52.498;13.446;2022-09-09T15:34:06;1.83;;;0.50;;
37517;SDS011;23366;52.498;13.446;2022-09-09T15:36:33;1.35;;;0.77;;
37517;SDS011;23366;52.498;13.446;2022-09-09T15:39:00;0.88;;;0.40;;
37517;SDS011;23366;52.498;13.446;2022-09-09T15:41:27;2.60;;;0.68;;
37517;SDS011;23366;52.498;13.446;2022-09-09T15:43:54;0.75;;;0.45;;
37517;SDS011;23366;52.498;13.446;2022-09-09T15:46:26;1.58;;;0.57;;
37517;SDS011;23366;52.498;13.446;2022-09-09T15:49:19;0.70;;;0.50;;
37517;SDS011;23366;52.498;13.446;2022-09-09T15:51:45;4.18;;;0.75;;
37517;SDS011;23366;52.498;13.446;2022-09-09T15:54:19;3.63;;;0.70;;
37517;SDS011;23366;52.498;13.446;2022-09-09T15:56:49;2.83;;;0.63;;
37517;SDS011;23366;52.498;13.446;2022-09-09T15:59:16;2.40;;;0.70;;
37517;SDS011;23366;52.498;13.446;2022-09-09T16:01:43;1.60;;;0.60;;
37517;SDS011;23366;52.498;13.446;2022-09-09T16:04:08;1.63;;;0.73;;
37517;SDS011;23366;52.498;13.446;2022-09-09T16:06:34;0.93;;;0.57;;
37517;SDS011;23366;52.498;13.446;2022-09-09T16:09:01;9.63;;;2.20;;
37517;SDS011;23366;52.498;13.446;2022-09-09T16:11:29;2.08;;;0.80;;
37517;SDS011;23366;52.498;13.446;2022-09-09T16:13:58;2.13;;;0.80;;
37517;SDS011;23366;52.498;13.446;2022-09-09T16:16:25;4.05;;;0.93;;
37517;SDS011;23366;52.498;13.446;2022-09-09T16:19:13;3.50;;;0.88;;
37517;SDS011;23366;52.498;13.446;2022-09-09T16:21:42;1.67;;;0.63;;
37517;SDS011;23366;52.498;13.446;2022-09-09T16:24:10;2.30;;;0.93;;
37517;SDS011;23366;52.498;13.446;2022-09-09T16:26:38;4.20;;;0.93;;
37517;SDS011;23366;52.498;13.446;2022-09-09T16:29:10;4.20;;;0.95;;
37517;SDS011;23366;52.498;13.446;2022-09-09T16:31:37;3.05;;;0.60;;
37517;SDS011;23366;52.498;13.446;2022-09-09T16:34:03;3.92;;;0.65;;
37517;SDS011;23366;52.498;13.446;2022-09-09T16:36:29;1.85;;;0.77;;
37517;SDS011;23366;52.498;13.446;2022-09-09T16:38:57;3.17;;;0.50;;
37517;SDS011;23366;52.498;13.446;2022-09-09T16:41:24;1.90;;;0.63;;
37517;SDS011;23366;52.498;13.446;2022-09-09T16:43:54;3.42;;;0.50;;
37517;SDS011;23366;52.498;13.446;2022-09-09T16:46:24;3.28;;;1.15;;